Valley City, ND (58072)

1:01 PM CST on February 06, 2016 (GMT -0600)
Valley City | | Change Station
CLOSE
Current Station
Airport
Location: Valley City,
Elevation: 1401 ft
Nearby Weather Stations
Active Advisory: Blizzard Watch

Elev 1401 ft 46.94 °N, 98.02 °W | Updated 6 minutes ago

Overcast
Overcast
39 °F
Feels Like 31 °F
N
15
Wind Variable Wind from WSW
Gusts 23 mph

Today
High -- | Low -- °F
--% Chance of Precip.
Yesterday
High -- | Low -- °F
Precip. -- in
Pressure 29.74 in
Visibility 8.0 miles
Clouds Few 4400 ft
Few 5000 ft
Scattered Clouds 6500 ft
Windchill 31 °F
Dew Point 32 °F
Humidity 75%
Rainfall 0.00 in
Snow Depth Not available.
7:50 AM 5:42 PM
Waning Crescent, 4% visible
METAR KBAC 061855Z AUTO 25013G20KT 8SM -RA FEW044 FEW050 SCT065 04/00 A2974 RMK AO2
Pressure 29.74 in
Visibility 8.0 miles
Clouds Few 4400 ft
Few 5000 ft
Scattered Clouds 6500 ft
Windchill 31 °F
Dew Point 32 °F
Humidity 75%
Rainfall 0.00 in
Snow Depth Not available.
7:50 AM 5:42 PM
Waning Crescent, 4% visible
METAR KBAC 061855Z AUTO 25013G20KT 8SM -RA FEW044 FEW050 SCT065 04/00 A2974 RMK AO2

10-Day Weather Forecast

Almanac

Astronomy

Feb. 06, 2016 Rise Set
Actual Time
Civil Twilight
Nautical Twilight
Astronomical Twilight
Moon
Length of Visible Light
Length of Day
Tomorrow will be .
, % of the Moon is Illuminated

Today's Extremes

State Highs State Lows

Community

WunderPhotos

Upload Photos

1,891,033 photos uploaded!

WunderBlog® & News

Nearby

Air Quality

  Air Quality AQ Index Pollutant
Not available.

Snow Depth

Station Depth Elevation

Earthquake Activity

City Distance Mag. Time & Date
Minimum magnitude displayed is 2.5.

Coastal Water Temperatures

Place Temperature

Stations

Nearby Weather Stations

Station Location Temp. Windchill Dew Point Humidity Wind Precip. Elev Updated Type
                   

Watches & Warnings

Blizzard Watch
Issued: 4:08 AM CST Feb. 6, 2016 – National Weather Service

... Blizzard watch remains in effect from Sunday morning through
late Sunday night...

* timing... blizzard conditions are possible from Sunday morning
through late Sunday night.

* Winds / visibilities... winds gusting as high as 60 mph could
cause whiteout conditions in blowing snow. Significant
drifting of the snow is likely... especially in open areas.

* Snow accumulations... total snow accumulations of 1 to 3 inches
are possible.

* Impacts... travel could be very difficult to impossible.

Precautionary/preparedness actions...

A blizzard watch means there is a potential for falling and/or
blowing snow with strong winds and extremely poor visibilities.
This can lead to whiteout conditions and make travel very
dangerous.